createdAt,value
2023-01-12T00:02:07.617Z,1.98
2023-01-12T00:05:09.986Z,2.14
2023-01-12T00:08:12.216Z,2.22
2023-01-12T00:11:15.179Z,2.34
2023-01-12T00:14:17.509Z,2.38
2023-01-12T00:17:19.778Z,2.29
2023-01-12T00:20:21.966Z,2.36
2023-01-12T00:23:26.146Z,2.31
2023-01-12T00:26:28.325Z,2.30
2023-01-12T00:29:30.652Z,2.29
2023-01-12T00:32:32.832Z,2.30
2023-01-12T00:35:38.033Z,2.41
2023-01-12T00:38:40.312Z,2.37
2023-01-12T00:42:02.400Z,2.19
2023-01-12T00:45:23.218Z,2.16
2023-01-12T00:48:25.667Z,2.40
2023-01-12T00:51:27.888Z,2.48
2023-01-12T00:54:30.076Z,2.51
2023-01-12T00:57:32.382Z,2.48
2023-01-12T01:00:34.615Z,2.51
2023-01-12T01:03:36.816Z,2.47
2023-01-12T01:06:39.372Z,2.50
2023-01-12T01:09:42.157Z,2.48
2023-01-12T01:12:44.592Z,2.54
2023-01-12T01:15:46.866Z,2.45
2023-01-12T01:18:49.112Z,2.44
2023-01-12T01:21:51.357Z,2.40
2023-01-12T01:24:53.556Z,2.29
2023-01-12T01:27:55.768Z,2.44
2023-01-12T01:31:14.164Z,2.53
2023-01-12T01:34:16.512Z,2.68
2023-01-12T01:37:18.822Z,2.80
2023-01-12T01:40:21.040Z,2.68
2023-01-12T01:43:26.203Z,2.55
2023-01-12T01:46:46.586Z,2.68
2023-01-12T01:49:52.678Z,2.60
2023-01-12T01:53:03.925Z,2.48
2023-01-12T01:56:11.573Z,2.62
2023-01-12T01:59:18.401Z,2.75
2023-01-12T02:02:21.262Z,2.66
2023-01-12T02:05:27.167Z,2.88
2023-01-12T02:08:38.493Z,2.77
2023-01-12T02:12:00.972Z,2.96
2023-01-12T02:15:21.941Z,3.06
2023-01-12T02:18:44.172Z,3.12
2023-01-12T02:22:29.845Z,3.15
2023-01-12T02:25:56.157Z,3.30
2023-01-12T02:29:17.305Z,3.25
2023-01-12T02:32:38.963Z,3.32
2023-01-12T02:35:49.494Z,3.19
2023-01-12T02:39:03.990Z,3.18
2023-01-12T02:42:41.446Z,2.99
2023-01-12T02:46:28.039Z,3.09
2023-01-12T02:49:36.522Z,3.06
2023-01-12T02:52:43.961Z,3.11
2023-01-12T02:55:47.866Z,3.08
2023-01-12T02:58:54.555Z,2.91
2023-01-12T03:02:01.369Z,2.96
2023-01-12T03:05:04.548Z,3.06
2023-01-12T03:08:07.681Z,3.11
2023-01-12T03:11:20.513Z,3.26
2023-01-12T03:14:23.119Z,3.35
2023-01-12T03:17:54.443Z,3.39
2023-01-12T03:21:03.217Z,3.22
2023-01-12T03:24:10.250Z,3.19
2023-01-12T03:27:17.898Z,2.89
2023-01-12T03:30:33.408Z,2.82
2023-01-12T03:33:36.400Z,2.84
2023-01-12T03:37:06.161Z,3.09
2023-01-12T03:40:25.639Z,3.12
2023-01-12T03:43:33.660Z,3.37
2023-01-12T03:46:43.394Z,3.56
2023-01-12T03:50:11.878Z,3.56
2023-01-12T03:53:17.162Z,3.49
2023-01-12T03:56:20.992Z,3.43
2023-01-12T03:59:23.932Z,3.47
2023-01-12T04:02:26.680Z,3.59
2023-01-12T04:05:28.925Z,3.77
2023-01-12T04:08:31.675Z,3.94
2023-01-12T04:11:52.288Z,3.94
2023-01-12T04:14:54.550Z,3.85
2023-01-12T04:17:56.796Z,3.99
2023-01-12T04:20:59.012Z,4.01
2023-01-12T04:24:01.271Z,3.93
2023-01-12T04:27:03.663Z,3.91
2023-01-12T04:30:08.637Z,3.73
2023-01-12T04:33:11.559Z,3.59
2023-01-12T04:36:13.881Z,3.66
2023-01-12T04:39:16.137Z,3.73
2023-01-12T04:42:36.830Z,3.71
2023-01-12T04:45:41.710Z,3.66
2023-01-12T04:48:44.298Z,3.63
2023-01-12T04:51:46.531Z,3.63
2023-01-12T04:54:48.740Z,3.47
2023-01-12T04:57:51.036Z,3.44
2023-01-12T05:00:53.297Z,3.40
2023-01-12T05:04:02.474Z,3.44
2023-01-12T05:07:04.752Z,3.50
2023-01-12T05:10:25.179Z,3.73
2023-01-12T05:13:30.565Z,3.77
2023-01-12T05:16:32.855Z,3.67
2023-01-12T05:19:35.101Z,3.74
2023-01-12T05:22:37.313Z,3.81
2023-01-12T05:25:39.598Z,3.91
2023-01-12T05:28:41.881Z,3.84
2023-01-12T05:31:44.128Z,3.77
2023-01-12T05:34:46.322Z,3.91
2023-01-12T05:37:48.549Z,3.78
2023-01-12T05:40:50.765Z,3.76
2023-01-12T05:43:53.180Z,3.87
2023-01-12T05:46:57.366Z,3.93
2023-01-12T05:49:59.578Z,4.04
2023-01-12T05:53:01.805Z,4.07
2023-01-12T05:56:10.585Z,4.07
2023-01-12T05:59:14.645Z,3.94
2023-01-12T06:02:17.541Z,3.81
2023-01-12T06:05:19.853Z,3.76
2023-01-12T06:08:22.355Z,3.78
2023-01-12T06:11:43.145Z,3.78
2023-01-12T06:14:45.445Z,3.87
2023-01-12T06:17:47.937Z,3.91
2023-01-12T06:20:50.173Z,3.90
2023-01-12T06:23:52.380Z,3.93
2023-01-12T06:26:55.211Z,3.87
2023-01-12T06:29:57.420Z,3.93
2023-01-12T06:33:02.335Z,4.09
2023-01-12T06:36:05.554Z,4.02
2023-01-12T06:39:07.981Z,4.05
2023-01-12T06:42:28.554Z,4.07
2023-01-12T06:45:30.905Z,4.14
2023-01-12T06:48:38.733Z,4.22
2023-01-12T06:51:41.735Z,4.11
2023-01-12T06:54:43.936Z,4.22
2023-01-12T06:57:46.287Z,4.36
2023-01-12T07:00:48.618Z,4.53
2023-01-12T07:03:51.665Z,4.34
2023-01-12T07:06:55.374Z,4.21
2023-01-12T07:09:58.148Z,4.19
2023-01-12T07:13:01.206Z,4.35
2023-01-12T07:16:08.214Z,4.65
2023-01-12T07:19:10.860Z,4.89
2023-01-12T07:22:13.248Z,4.96
2023-01-12T07:25:19.151Z,4.86
2023-01-12T07:28:22.977Z,4.87
2023-01-12T07:31:28.231Z,4.99
2023-01-12T07:34:35.948Z,4.89
2023-01-12T07:37:38.209Z,5.10
2023-01-12T07:40:40.960Z,5.24
2023-01-12T07:43:43.480Z,5.31
2023-01-12T07:46:46.039Z,5.35
2023-01-12T07:49:48.629Z,5.40
2023-01-12T07:52:54.312Z,5.32
2023-01-12T07:56:01.590Z,5.40
2023-01-12T07:59:04.369Z,5.40
2023-01-12T08:02:08.303Z,5.27
2023-01-12T08:05:15.544Z,5.37
2023-01-12T08:08:26.894Z,5.30
2023-01-12T08:11:34.668Z,5.23
2023-01-12T08:14:38.805Z,5.16
2023-01-12T08:17:50.852Z,5.21
2023-01-12T08:20:58.686Z,5.14
2023-01-12T08:24:06.229Z,5.17
2023-01-12T08:27:11.708Z,5.14
2023-01-12T08:30:17.617Z,5.13
2023-01-12T08:33:20.283Z,5.18
2023-01-12T08:36:23.644Z,5.18
2023-01-12T08:39:31.991Z,5.16
2023-01-12T08:42:34.446Z,5.32
2023-01-12T08:45:36.668Z,5.41
2023-01-12T08:48:41.783Z,5.52
2023-01-12T08:51:47.390Z,5.44
2023-01-12T08:54:50.380Z,5.59
2023-01-12T08:57:52.686Z,5.52
2023-01-12T09:00:57.110Z,5.55
2023-01-12T09:04:03.131Z,5.48
2023-01-12T09:07:07.020Z,5.40
2023-01-12T09:10:18.203Z,5.37
2023-01-12T09:13:23.461Z,5.32
2023-01-12T09:16:31.111Z,5.35
2023-01-12T09:19:34.708Z,5.56
2023-01-12T09:22:37.158Z,5.31
2023-01-12T09:25:39.796Z,5.30
2023-01-12T09:28:45.799Z,5.30
2023-01-12T09:31:48.202Z,5.35
2023-01-12T09:34:51.822Z,5.18
2023-01-12T09:37:54.106Z,5.20
2023-01-12T09:41:12.081Z,5.27
2023-01-12T09:44:38.055Z,5.26
2023-01-12T09:47:56.503Z,5.27
2023-01-12T09:51:13.407Z,5.40
2023-01-12T09:54:23.580Z,5.48
2023-01-12T09:57:44.208Z,5.48
2023-01-12T10:00:54.128Z,5.52
2023-01-12T10:03:57.572Z,5.63
2023-01-12T10:07:11.527Z,5.73
2023-01-12T10:10:16.022Z,5.75
2023-01-12T10:13:19.695Z,6.07
2023-01-12T10:16:50.507Z,6.33
2023-01-12T10:20:09.548Z,6.61
2023-01-12T10:23:19.455Z,6.81
2023-01-12T10:26:24.290Z,6.77
2023-01-12T10:29:27.186Z,6.63
2023-01-12T10:32:41.491Z,6.55
2023-01-12T10:36:01.650Z,6.41
2023-01-12T10:39:05.189Z,6.24
2023-01-12T10:42:36.475Z,5.99
2023-01-12T10:45:38.950Z,6.26
2023-01-12T10:48:56.316Z,6.12
2023-01-12T10:52:09.192Z,6.07
2023-01-12T10:55:19.909Z,6.17
2023-01-12T10:58:29.163Z,6.17
2023-01-12T11:01:54.204Z,6.09
2023-01-12T11:05:02.730Z,5.95
2023-01-12T11:08:28.756Z,6.02
2023-01-12T11:11:34.330Z,5.92
2023-01-12T11:14:38.197Z,6.03
2023-01-12T11:18:10.654Z,6.20
2023-01-12T11:21:23.897Z,6.23
2023-01-12T11:24:52.718Z,6.57
2023-01-12T11:28:26.091Z,6.80
2023-01-12T11:31:45.969Z,7.06
2023-01-12T11:34:59.316Z,7.09
2023-01-12T11:38:12.300Z,7.94
2023-01-12T11:41:29.258Z,9.04
2023-01-12T11:44:37.236Z,9.21
2023-01-12T11:47:47.273Z,9.20
2023-01-12T11:50:51.041Z,9.93
2023-01-12T11:53:54.158Z,10.97
2023-01-12T11:57:34.349Z,11.49
2023-01-12T12:00:55.199Z,11.66
2023-01-12T12:04:26.769Z,11.39
2023-01-12T12:07:43.908Z,10.91
2023-01-12T12:11:01.042Z,11.07
2023-01-12T12:14:13.963Z,11.04
2023-01-12T12:17:33.380Z,14.76
2023-01-12T12:20:46.498Z,16.07
2023-01-12T12:24:16.245Z,16.06
2023-01-12T12:27:49.090Z,14.96
2023-01-12T12:31:06.372Z,17.96
2023-01-12T12:34:37.046Z,19.12
2023-01-12T12:37:54.986Z,19.09
2023-01-12T12:41:18.549Z,20.09
2023-01-12T12:44:54.728Z,20.16
2023-01-12T12:48:18.193Z,20.43
2023-01-12T12:51:30.189Z,19.12
2023-01-12T12:54:35.496Z,19.24
2023-01-12T12:58:02.034Z,19.09
2023-01-12T13:01:19.575Z,17.53
2023-01-12T13:04:46.263Z,17.81
2023-01-12T13:07:52.187Z,17.65
2023-01-12T13:10:57.714Z,17.76
2023-01-12T13:14:03.318Z,15.96
2023-01-12T13:17:21.158Z,14.43
2023-01-12T13:20:34.565Z,14.01
2023-01-12T13:23:48.853Z,14.00
2023-01-12T13:27:00.741Z,13.54
2023-01-12T13:30:32.362Z,13.00
2023-01-12T13:33:35.732Z,12.56
2023-01-12T13:36:39.197Z,12.55
2023-01-12T13:39:52.403Z,11.90
2023-01-12T13:43:17.148Z,11.38
2023-01-12T13:46:27.176Z,11.16
2023-01-12T13:49:32.484Z,11.12
2023-01-12T13:52:37.182Z,11.05
2023-01-12T13:55:39.495Z,10.95
2023-01-12T13:58:43.666Z,10.84
2023-01-12T14:01:48.528Z,10.61
2023-01-12T14:04:57.755Z,10.13
2023-01-12T14:08:24.229Z,9.69
2023-01-12T14:11:29.273Z,9.63
2023-01-12T14:15:04.363Z,9.58
2023-01-12T14:18:11.708Z,9.63
2023-01-12T14:21:37.935Z,10.10
2023-01-12T14:24:40.198Z,10.65
2023-01-12T14:27:56.484Z,10.64
2023-01-12T14:30:59.067Z,10.09
2023-01-12T14:34:03.971Z,10.20
2023-01-12T14:37:21.171Z,9.69
2023-01-12T14:40:30.686Z,9.92
2023-01-12T14:43:53.630Z,10.43
2023-01-12T14:46:56.030Z,10.98
2023-01-12T14:50:14.097Z,10.68
2023-01-12T14:53:31.074Z,10.95
2023-01-12T14:56:43.225Z,10.64
2023-01-12T14:59:47.682Z,10.05
2023-01-12T15:02:52.317Z,9.21
2023-01-12T15:05:55.288Z,8.34
2023-01-12T15:09:01.111Z,7.94
2023-01-12T15:12:28.196Z,7.50
2023-01-12T15:15:51.279Z,7.29
2023-01-12T15:19:11.735Z,6.99
2023-01-12T15:22:32.613Z,6.80
2023-01-12T15:25:38.104Z,6.43
2023-01-12T15:28:41.011Z,6.30
2023-01-12T15:31:44.080Z,6.23
2023-01-12T15:34:46.674Z,6.03
2023-01-12T15:37:49.584Z,5.99
2023-01-12T15:40:51.800Z,5.93
2023-01-12T15:43:54.015Z,5.79
2023-01-12T15:46:56.199Z,5.78
2023-01-12T15:49:58.418Z,5.75
2023-01-12T15:53:01.662Z,5.76
2023-01-12T15:56:04.386Z,5.65
2023-01-12T15:59:06.739Z,5.55
2023-01-12T16:02:17.962Z,5.47
2023-01-12T16:05:23.051Z,5.54
2023-01-12T16:08:25.350Z,5.61
2023-01-12T16:11:27.600Z,5.49
2023-01-12T16:14:29.908Z,5.40
2023-01-12T16:17:32.149Z,5.42
2023-01-12T16:20:34.370Z,5.44
2023-01-12T16:23:37.632Z,5.48
2023-01-12T16:26:39.927Z,5.31
2023-01-12T16:29:42.266Z,5.28
2023-01-12T16:32:46.919Z,5.20
2023-01-12T16:35:49.437Z,5.20
2023-01-12T16:38:51.678Z,5.03
2023-01-12T16:42:03.424Z,4.91
2023-01-12T16:45:06.414Z,4.81
2023-01-12T16:48:08.753Z,4.89
2023-01-12T16:51:19.816Z,4.94
2023-01-12T16:54:22.075Z,4.72
2023-01-12T16:57:24.440Z,4.39
2023-01-12T17:00:28.001Z,4.24
2023-01-12T17:03:30.347Z,4.18
2023-01-12T17:06:33.335Z,4.08
2023-01-12T17:09:39.793Z,4.07
2023-01-12T17:12:50.949Z,4.05
2023-01-12T17:15:59.076Z,4.18
2023-01-12T17:19:01.399Z,4.17
2023-01-12T17:22:06.334Z,4.24
2023-01-12T17:25:09.021Z,4.22
2023-01-12T17:28:11.298Z,4.24
2023-01-12T17:31:17.524Z,4.38
2023-01-12T17:34:19.906Z,4.39
2023-01-12T17:37:22.116Z,4.18
2023-01-12T17:40:26.569Z,4.02
2023-01-12T17:43:28.786Z,3.83
2023-01-12T17:46:32.023Z,3.63
2023-01-12T17:49:34.297Z,3.73
2023-01-12T17:52:36.551Z,3.74
2023-01-12T17:55:47.613Z,3.80
2023-01-12T17:58:52.063Z,3.78
2023-01-12T18:01:55.370Z,3.80
2023-01-12T18:04:57.855Z,3.71
2023-01-12T18:08:00.077Z,3.52
2023-01-12T18:11:07.421Z,3.62
2023-01-12T18:14:09.674Z,3.60
2023-01-12T18:17:12.803Z,3.56
2023-01-12T18:20:15.237Z,3.49
2023-01-12T18:23:17.623Z,3.30
2023-01-12T18:26:25.433Z,3.12
2023-01-12T18:29:27.827Z,3.01
2023-01-12T18:32:30.069Z,3.01
2023-01-12T18:35:36.001Z,3.05
2023-01-12T18:38:40.755Z,3.01
2023-01-12T18:42:01.437Z,2.89
2023-01-12T18:45:04.816Z,2.74
2023-01-12T18:48:23.703Z,2.68
2023-01-12T18:52:01.246Z,2.77
2023-01-12T18:55:04.850Z,2.82
2023-01-12T18:58:07.041Z,2.87
2023-01-12T19:01:15.558Z,2.88
2023-01-12T19:04:28.400Z,2.89
2023-01-12T19:07:50.014Z,2.95
2023-01-12T19:10:52.556Z,2.85
2023-01-12T19:14:13.188Z,2.68
2023-01-12T19:17:27.444Z,2.62
2023-01-12T19:20:30.598Z,2.47
2023-01-12T19:23:51.148Z,2.34
2023-01-12T19:27:11.949Z,2.29
2023-01-12T19:30:14.479Z,2.22
2023-01-12T19:33:17.840Z,2.22
2023-01-12T19:36:20.063Z,2.26
2023-01-12T19:39:34.617Z,2.38
2023-01-12T19:42:55.785Z,2.34
2023-01-12T19:46:00.597Z,2.16
2023-01-12T19:49:02.808Z,2.03
2023-01-12T19:52:05.169Z,2.16
2023-01-12T19:55:10.169Z,2.24
2023-01-12T19:58:12.472Z,2.30
2023-01-12T20:01:22.103Z,2.23
2023-01-12T20:04:24.542Z,2.26
2023-01-12T20:07:27.167Z,2.27
2023-01-12T20:10:29.427Z,2.22
2023-01-12T20:13:32.655Z,2.17
2023-01-12T20:16:35.019Z,2.07
2023-01-12T20:19:37.356Z,1.95
2023-01-12T20:22:39.817Z,1.83
2023-01-12T20:25:43.529Z,1.76
2023-01-12T20:28:45.827Z,1.69
2023-01-12T20:31:50.078Z,1.72
2023-01-12T20:34:52.967Z,1.81
2023-01-12T20:37:55.137Z,1.69
2023-01-12T20:40:57.418Z,1.79
2023-01-12T20:43:59.636Z,1.71
2023-01-12T20:47:01.975Z,1.68
2023-01-12T20:50:07.553Z,1.56
2023-01-12T20:53:11.482Z,1.61
2023-01-12T20:56:13.795Z,1.76
2023-01-12T20:59:16.745Z,1.81
2023-01-12T21:02:21.443Z,1.87
2023-01-12T21:05:23.719Z,1.63
2023-01-12T21:08:25.934Z,1.48
2023-01-12T21:11:28.191Z,1.35
2023-01-12T21:14:30.610Z,1.24
2023-01-12T21:17:33.003Z,1.23
2023-01-12T21:20:35.486Z,1.34
2023-01-12T21:23:38.033Z,1.35
2023-01-12T21:26:40.206Z,1.26
2023-01-12T21:29:42.543Z,1.23
2023-01-12T21:32:44.764Z,1.10
2023-01-12T21:35:55.727Z,1.05
2023-01-12T21:38:59.244Z,1.07
2023-01-12T21:42:20.366Z,1.28
2023-01-12T21:45:23.843Z,1.42
2023-01-12T21:48:26.090Z,1.42
2023-01-12T21:51:28.249Z,1.26
2023-01-12T21:54:31.260Z,1.08
2023-01-12T21:57:33.477Z,1.01
2023-01-12T22:00:35.819Z,1.05
2023-01-12T22:03:38.659Z,1.18
2023-01-12T22:06:40.996Z,1.16
2023-01-12T22:09:43.174Z,1.24
2023-01-12T22:12:57.042Z,1.16
2023-01-12T22:16:06.984Z,1.04
2023-01-12T22:19:09.346Z,1.10
2023-01-12T22:22:11.563Z,1.21
2023-01-12T22:25:15.421Z,1.27
2023-01-12T22:28:17.630Z,1.30
2023-01-12T22:31:22.573Z,1.44
2023-01-12T22:34:25.098Z,1.32
2023-01-12T22:37:33.573Z,1.11
2023-01-12T22:40:35.782Z,1.08
2023-01-12T22:43:40.901Z,1.11
2023-01-12T22:46:43.253Z,1.21
2023-01-12T22:49:45.544Z,1.31
2023-01-12T22:52:52.688Z,1.10
2023-01-12T22:55:59.434Z,1.08
2023-01-12T22:59:02.266Z,1.16
2023-01-12T23:02:24.585Z,1.23
2023-01-12T23:05:32.044Z,1.14
2023-01-12T23:08:34.291Z,1.08
2023-01-12T23:11:36.423Z,0.99
2023-01-12T23:14:39.131Z,0.97
2023-01-12T23:17:41.259Z,0.90
2023-01-12T23:20:43.823Z,0.84
2023-01-12T23:23:48.143Z,0.69
2023-01-12T23:26:50.369Z,0.69
2023-01-12T23:29:52.489Z,0.50
2023-01-12T23:32:54.656Z,0.36
2023-01-12T23:36:01.237Z,0.36
2023-01-12T23:39:06.439Z,0.41
2023-01-12T23:42:08.567Z,0.44
2023-01-12T23:45:11.272Z,0.35
2023-01-12T23:48:13.495Z,0.35
2023-01-12T23:51:16.221Z,0.39
2023-01-12T23:54:18.378Z,0.30
2023-01-12T23:57:20.555Z,0.25
